ΕΜΥ, Εθνική Μετεωρολογική Υπηρεσία - Δελτία Καιρού, Προγνώσεις

ΑΕΡΟΝΑΥΤΙΛΙΑ

GREEK AIRPORTS CODES

LGAV 281650Z 24008KT 9999 FEW020 12/02 Q1010 RMK NOSIG=

EUROPEAN AIRPORTS CODES

LFPO 281700Z 19014KT 9999 BKN010 08/06 Q1010 TEMPO 4000BKN008=